Time;durP1;ratioP1;P1;durP2;ratioP2;P2;SDS_P1;SDS_P2;PMS_P1;PMS_P2;Temp;Humidity;BMP_temperature;BMP_pressure;BME280_temperature;BME280_humidity;BME280_pressure;Samples;Min_cycle;Max_cycle;Signal;HPM_P1;HPM_P2
2024/01/08 00:00:58;;;;;;;6.45;3.42;;;-0.20;99.90;;;;;;5071953;28;20044;-70
2024/01/08 00:03:24;;;;;;;5.80;3.53;;;-0.20;99.90;;;;;;5073358;28;20036;-70
2024/01/08 00:05:49;;;;;;;;;;;-0.30;99.90;;;;;;5073540;28;20044;-70
2024/01/08 00:08:15;;;;;;;6.85;3.53;;;-0.30;99.90;;;;;;5072192;28;20287;-70
2024/01/08 00:10:41;;;;;;;8.55;3.90;;;-0.30;99.90;;;;;;5072346;28;20048;-70
2024/01/08 00:13:07;;;;;;;6.65;3.88;;;-0.30;99.90;;;;;;5073110;28;20099;-71
2024/01/08 00:15:32;;;;;;;6.20;3.78;;;-0.30;99.90;;;;;;5072159;28;20436;-70
2024/01/08 00:17:58;;;;;;;7.03;4.00;;;-0.30;99.90;;;;;;5072100;28;20102;-70
2024/01/08 00:20:24;;;;;;;8.85;4.25;;;-0.30;99.90;;;;;;5071259;28;20084;-70
2024/01/08 00:22:49;;;;;;;8.27;3.70;;;-0.30;99.90;;;;;;5072080;28;20041;-70
2024/01/08 00:25:15;;;;;;;6.25;3.50;;;-0.40;99.90;;;;;;5071212;28;20049;-70
2024/01/08 00:27:41;;;;;;;5.90;3.40;;;-0.40;99.90;;;;;;5071925;28;20059;-70
2024/01/08 00:30:10;;;;;;;6.90;3.85;;;-0.40;99.90;;;;;;5071889;28;20044;-70
2024/01/08 00:32:36;;;;;;;6.75;4.20;;;-0.40;99.90;;;;;;5071217;28;20049;-70
2024/01/08 00:35:01;;;;;;;6.60;4.22;;;-0.50;99.90;;;;;;5070627;28;20056;-71
2024/01/08 00:37:27;;;;;;;6.95;4.10;;;-0.40;99.90;;;;;;5071967;28;20082;-70
2024/01/08 00:39:52;;;;;;;7.07;4.25;;;-0.40;99.90;;;;;;5072684;28;20066;-71
2024/01/08 00:42:18;;;;;;;;;;;-0.40;99.90;;;;;;5070939;28;20119;-70
2024/01/08 00:44:43;;;;;;;8.07;4.30;;;-0.40;99.90;;;;;;5071277;28;19971;-70
2024/01/08 00:47:09;;;;;;;8.00;4.35;;;-0.40;99.90;;;;;;5070629;28;20454;-70
2024/01/08 00:49:35;;;;;;;6.95;4.45;;;-0.40;99.90;;;;;;5070524;28;20457;-70
2024/01/08 00:52:00;;;;;;;9.07;4.32;;;-0.40;99.90;;;;;;5072435;28;20084;-70
2024/01/08 00:54:26;;;;;;;8.32;4.32;;;-0.50;99.90;;;;;;5072513;28;20135;-70
2024/01/08 00:56:51;;;;;;;7.80;3.95;;;-0.40;99.90;;;;;;5071782;28;20567;-70
2024/01/08 00:59:17;;;;;;;;;;;-0.40;99.90;;;;;;5071424;28;20048;-70
2024/01/08 01:01:42;;;;;;;9.60;4.18;;;-0.40;99.90;;;;;;5071016;28;19971;-70
2024/01/08 01:04:08;;;;;;;6.65;3.63;;;-0.50;99.90;;;;;;5069721;28;20040;-70
2024/01/08 01:06:34;;;;;;;8.48;4.15;;;-0.50;99.90;;;;;;5071148;28;20479;-70
2024/01/08 01:08:59;;;;;;;9.80;4.32;;;-0.40;99.90;;;;;;5070978;28;20048;-70
2024/01/08 01:11:25;;;;;;;8.52;4.43;;;-0.40;99.90;;;;;;5070662;28;20053;-70
2024/01/08 01:13:50;;;;;;;9.50;4.22;;;-0.40;99.90;;;;;;5072056;28;20044;-70
2024/01/08 01:16:16;;;;;;;6.35;3.88;;;-0.50;99.90;;;;;;5071994;28;20048;-70
2024/01/08 01:18:42;;;;;;;7.75;3.92;;;-0.50;99.90;;;;;;5070586;28;20388;-70
2024/01/08 01:21:07;;;;;;;9.18;4.28;;;-0.50;99.90;;;;;;5071869;28;20471;-71
2024/01/08 01:23:33;;;;;;;8.27;4.70;;;-0.40;99.90;;;;;;5070633;28;20074;-71
2024/01/08 01:25:59;;;;;;;6.95;4.13;;;-0.40;99.90;;;;;;5068971;28;20127;-70
2024/01/08 01:28:24;;;;;;;10.60;4.45;;;-0.40;99.90;;;;;;5072260;28;20040;-70
2024/01/08 01:30:50;;;;;;;8.32;4.20;;;-0.50;99.90;;;;;;5071077;28;20055;-71
2024/01/08 01:33:15;;;;;;;7.68;4.05;;;-0.50;99.90;;;;;;5070803;28;20037;-70
2024/01/08 01:35:41;;;;;;;8.15;4.18;;;-0.50;99.90;;;;;;5071029;28;20054;-70
2024/01/08 01:38:06;;;;;;;9.85;5.25;;;-0.50;99.90;;;;;;5071928;28;20396;-70
2024/01/08 01:40:32;;;;;;;;;;;-0.50;99.90;;;;;;5070039;28;20048;-70
2024/01/08 01:42:58;;;;;;;7.90;4.18;;;-0.40;99.90;;;;;;5073237;28;19943;-71
2024/01/08 01:45:23;;;;;;;10.07;4.53;;;-0.50;99.90;;;;;;5074627;28;20468;-71
2024/01/08 01:47:55;;;;;;;9.13;4.68;;;-0.50;99.90;;;;;;5075131;28;20123;-70
2024/01/08 01:50:21;;;;;;;8.95;4.22;;;-0.40;99.90;;;;;;5074315;28;20080;-70
2024/01/08 01:52:47;;;;;;;13.45;4.43;;;-0.40;99.90;;;;;;5073797;28;20052;-71
2024/01/08 01:55:14;;;;;;;7.25;4.18;;;-0.40;99.90;;;;;;5073592;28;20049;-70
2024/01/08 01:57:41;;;;;;;9.25;4.38;;;-0.40;99.90;;;;;;5074272;28;20067;-70
2024/01/08 02:00:19;;;;;;;8.05;4.47;;;-0.30;99.90;;;;;;5073443;28;20101;-70
2024/01/08 02:02:45;;;;;;;8.85;3.90;;;-0.40;99.90;;;;;;5075427;28;20044;-70
2024/01/08 02:05:12;;;;;;;6.85;3.72;;;-0.50;99.90;;;;;;5074061;28;20098;-70
2024/01/08 02:07:40;;;;;;;6.65;3.47;;;-0.50;99.90;;;;;;5073834;28;20040;-70
2024/01/08 02:10:06;;;;;;;7.05;3.90;;;-0.60;99.90;;;;;;5074197;28;20433;-71
2024/01/08 02:12:32;;;;;;;7.88;3.60;;;-0.60;99.90;;;;;;5074127;28;20105;-70
2024/01/08 02:14:58;;;;;;;7.03;3.47;;;-0.70;99.90;;;;;;5073427;28;20131;-70
2024/01/08 02:17:23;;;;;;;6.25;3.60;;;-0.80;99.90;;;;;;5075407;28;20041;-70
2024/01/08 02:19:49;;;;;;;8.30;3.95;;;-0.90;99.90;;;;;;5073537;28;20044;-70
2024/01/08 02:22:14;;;;;;;9.07;4.50;;;-1.00;99.90;;;;;;5073984;28;20050;-70
2024/01/08 02:24:40;;;;;;;6.88;4.22;;;-1.00;99.90;;;;;;5074154;28;20048;-70
2024/01/08 02:27:06;;;;;;;8.90;3.95;;;-1.10;99.90;;;;;;5073769;28;20079;-70
2024/01/08 02:29:35;;;;;;;7.72;4.13;;;-1.10;99.90;;;;;;5073325;28;20078;-70
2024/01/08 02:32:01;;;;;;;7.10;4.40;;;-1.20;99.90;;;;;;5074648;28;20135;-70
2024/01/08 02:34:26;;;;;;;6.50;3.70;;;-1.30;99.90;;;;;;5074273;28;20127;-70
2024/01/08 02:36:52;;;;;;;7.65;3.70;;;-1.30;99.90;;;;;;5074295;28;20480;-70
2024/01/08 02:39:17;;;;;;;8.25;4.60;;;-1.30;99.90;;;;;;5074676;28;20086;-70
2024/01/08 02:41:43;;;;;;;7.13;4.45;;;-1.40;99.90;;;;;;5075032;28;20537;-70
2024/01/08 02:44:08;;;;;;;7.53;4.72;;;-1.40;99.90;;;;;;5072656;28;20076;-70
2024/01/08 02:46:34;;;;;;;6.53;3.97;;;-1.40;99.90;;;;;;5073688;28;20037;-70
2024/01/08 02:49:00;;;;;;;7.68;4.20;;;-1.30;99.90;;;;;;5073142;28;20056;-70
2024/01/08 02:51:25;;;;;;;8.25;4.35;;;-1.30;99.90;;;;;;5073641;28;20418;-69
2024/01/08 02:53:51;;;;;;;9.00;4.50;;;-1.30;99.90;;;;;;5074162;28;20470;-70
2024/01/08 02:56:24;;;;;;;9.82;5.25;;;-1.00;99.90;;;;;;5073371;28;20040;-70
2024/01/08 02:58:50;;;;;;;10.57;5.00;;;-1.30;99.90;;;;;;5073641;28;20450;-70
2024/01/08 03:01:16;;;;;;;9.15;4.60;;;-1.30;99.90;;;;;;5074074;28;20135;-70
2024/01/08 03:03:42;;;;;;;9.18;4.70;;;-1.30;99.90;;;;;;5072129;28;20085;-70
2024/01/08 03:06:07;;;;;;;8.48;4.75;;;-1.30;99.90;;;;;;5073266;28;20045;-70
2024/01/08 03:08:33;;;;;;;9.05;4.60;;;-1.20;99.90;;;;;;5073282;28;20488;-70
2024/01/08 03:10:59;;;;;;;8.35;4.60;;;-1.20;99.90;;;;;;5072232;28;20049;-69
2024/01/08 03:13:24;;;;;;;7.53;4.47;;;-1.20;99.90;;;;;;5073878;28;20414;-69
2024/01/08 03:15:50;;;;;;;10.93;4.80;;;-1.20;99.90;;;;;;5073009;28;20052;-69
2024/01/08 03:18:15;;;;;;;9.45;4.50;;;-1.10;99.90;;;;;;5073032;28;20041;-70
2024/01/08 03:20:41;;;;;;;7.85;4.63;;;-1.10;99.90;;;;;;5074178;28;20051;-69
2024/01/08 03:23:09;;;;;;;7.70;4.60;;;-1.00;99.90;;;;;;5072279;28;20044;-70
2024/01/08 03:25:35;;;;;;;7.53;4.68;;;-1.00;99.90;;;;;;5073446;28;20048;-69
2024/01/08 03:28:01;;;;;;;9.25;4.75;;;-1.10;99.90;;;;;;5072803;28;20398;-69
2024/01/08 03:30:27;;;;;;;10.68;5.63;;;-1.00;99.90;;;;;;5072759;28;20059;-69
2024/01/08 03:32:52;;;;;;;9.68;5.22;;;-1.00;99.90;;;;;;5071745;28;20044;-69
2024/01/08 03:35:18;;;;;;;8.27;4.93;;;-1.00;99.90;;;;;;5073478;28;20068;-69
2024/01/08 03:37:45;;;;;;;8.45;4.60;;;-0.90;99.90;;;;;;5072967;28;20053;-69
2024/01/08 03:40:10;;;;;;;8.55;4.65;;;-1.00;99.90;;;;;;5071572;28;20048;-70
2024/01/08 03:42:36;;;;;;;9.32;4.90;;;-0.90;99.90;;;;;;5072349;28;20059;-69
2024/01/08 03:45:02;;;;;;;8.75;5.10;;;-0.90;99.90;;;;;;5072917;28;20045;-70
2024/01/08 03:47:27;;;;;;;8.32;4.85;;;-0.90;99.90;;;;;;5071562;28;20072;-69
2024/01/08 03:49:57;;;;;;;9.90;4.70;;;-0.90;99.90;;;;;;5071905;28;20106;-69
2024/01/08 03:52:25;;;;;;;7.63;4.75;;;-0.90;99.90;;;;;;5072527;28;20051;-69
2024/01/08 03:54:51;;;;;;;8.80;5.10;;;-0.90;99.90;;;;;;5072210;28;20053;-70
2024/01/08 03:57:17;;;;;;;9.70;4.78;;;-0.80;99.90;;;;;;5071705;28;20075;-70
2024/01/08 03:59:43;;;;;;;7.82;4.68;;;-0.80;99.90;;;;;;5070732;28;20121;-70
2024/01/08 04:02:08;;;;;;;8.50;4.85;;;-0.80;99.90;;;;;;5073051;28;20186;-70
2024/01/08 04:04:34;;;;;;;9.60;4.97;;;-0.80;99.90;;;;;;5071778;28;20049;-69
2024/01/08 04:07:00;;;;;;;10.18;5.65;;;-0.70;99.90;;;;;;5071900;28;20055;-69
2024/01/08 04:09:26;;;;;;;7.88;4.70;;;-0.70;99.90;;;;;;5071569;28;20045;-70
2024/01/08 04:11:52;;;;;;;8.88;5.22;;;-0.70;99.90;;;;;;5071907;28;20056;-69
2024/01/08 04:14:18;;;;;;;9.23;5.38;;;-0.70;99.90;;;;;;5070739;28;20078;-70
2024/01/08 04:16:43;;;;;;;9.45;5.18;;;-0.70;99.90;;;;;;5106052;28;20045;-69
2024/01/08 04:19:09;;;;;;;9.43;5.28;;;-0.70;99.90;;;;;;5071456;28;20032;-69
2024/01/08 04:21:34;;;;;;;8.38;4.93;;;-0.60;99.90;;;;;;5070706;28;20576;-69
2024/01/08 04:24:00;;;;;;;9.02;5.43;;;-0.70;99.90;;;;;;5071503;28;20443;-69
2024/01/08 04:26:27;;;;;;;7.45;4.70;;;-0.70;99.90;;;;;;5072967;28;20480;-69
2024/01/08 04:28:52;;;;;;;9.90;5.03;;;-0.70;99.90;;;;;;5072080;28;20062;-69
2024/01/08 04:31:19;;;;;;;8.38;4.97;;;-0.70;99.90;;;;;;5072741;28;20661;-69
2024/01/08 04:33:45;;;;;;;11.65;5.45;;;-0.70;99.90;;;;;;5072080;28;20170;-69
2024/01/08 04:36:12;;;;;;;7.57;5.00;;;-0.70;99.90;;;;;;5070466;28;20483;-69
2024/01/08 04:38:38;;;;;;;8.80;5.00;;;-0.70;99.90;;;;;;5071048;28;20450;-69
2024/01/08 04:41:03;;;;;;;8.25;5.20;;;-0.70;99.90;;;;;;5071865;28;20067;-69
2024/01/08 04:43:29;;;;;;;8.13;5.38;;;-0.70;99.90;;;;;;5070928;28;20048;-69
2024/01/08 04:45:54;;;;;;;7.90;5.38;;;-0.70;99.90;;;;;;5071071;28;20051;-70
2024/01/08 04:48:20;;;;;;;8.70;5.43;;;-0.60;99.90;;;;;;5071182;28;20109;-70
2024/01/08 04:50:46;;;;;;;9.30;5.10;;;-0.60;99.90;;;;;;5070889;28;20051;-70
2024/01/08 04:53:11;;;;;;;8.82;5.15;;;-0.60;99.90;;;;;;5071091;28;20086;-70
2024/01/08 04:55:37;;;;;;;8.70;5.35;;;-0.60;99.90;;;;;;5070353;28;20101;-70
2024/01/08 04:58:05;;;;;;;9.50;4.97;;;-0.60;99.90;;;;;;5072124;28;20062;-70
2024/01/08 05:00:30;;;;;;;9.80;5.38;;;-0.50;99.90;;;;;;5072342;28;20040;-70
2024/01/08 05:02:56;;;;;;;9.65;5.15;;;-0.60;99.90;;;;;;5070652;28;20502;-70
2024/01/08 05:05:22;;;;;;;9.00;5.13;;;-0.60;99.90;;;;;;5072224;28;20086;-70
2024/01/08 05:07:47;;;;;;;8.07;4.78;;;-0.50;99.90;;;;;;5072515;28;20062;-70
2024/01/08 05:10:13;;;;;;;10.52;5.35;;;-0.50;99.90;;;;;;5070272;28;20058;-72
2024/01/08 05:12:38;;;;;;;7.78;5.00;;;-0.50;99.90;;;;;;5072387;28;20472;-73
2024/01/08 05:15:04;;;;;;;12.77;5.85;;;-0.50;99.90;;;;;;5072035;28;20041;-73
2024/01/08 05:17:30;;;;;;;8.93;4.88;;;-0.50;99.90;;;;;;5070809;28;20067;-71
2024/01/08 05:19:56;;;;;;;9.15;5.20;;;-0.50;99.90;;;;;;5070285;28;20048;-71
2024/01/08 05:22:21;;;;;;;9.05;4.15;;;-0.50;99.90;;;;;;5071932;28;20372;-71
2024/01/08 05:24:47;;;;;;;7.97;3.38;;;-0.40;99.90;;;;;;5071192;28;20080;-71
2024/01/08 05:27:12;;;;;;;6.97;3.65;;;-0.40;99.90;;;;;;5071638;28;20079;-71
2024/01/08 05:29:38;;;;;;;8.38;3.05;;;-0.40;99.90;;;;;;5072327;28;20045;-71
2024/01/08 05:32:04;;;;;;;7.97;3.22;;;-0.40;99.90;;;;;;5071327;28;20438;-71
2024/01/08 05:34:29;;;;;;;5.32;2.95;;;-0.40;99.90;;;;;;5071997;28;20377;-71
2024/01/08 05:36:58;;;;;;;7.35;3.30;;;-0.40;99.90;;;;;;5070979;28;20062;-72
2024/01/08 05:39:26;;;;;;;6.90;3.20;;;-0.30;99.90;;;;;;5070228;28;20511;-71
2024/01/08 05:41:52;;;;;;;6.68;3.03;;;-0.40;99.90;;;;;;5071497;28;20045;-71
2024/01/08 05:44:18;;;;;;;5.75;3.22;;;-0.50;99.90;;;;;;5071707;28;20459;-72
2024/01/08 05:46:43;;;;;;;6.07;3.20;;;-0.50;99.90;;;;;;5069983;28;20097;-71
2024/01/08 05:49:10;;;;;;;4.80;2.88;;;-0.50;99.90;;;;;;5070351;28;20048;-71
2024/01/08 05:51:36;;;;;;;9.60;3.17;;;-0.50;99.90;;;;;;5071942;28;20127;-71
2024/01/08 05:54:02;;;;;;;5.70;2.65;;;-0.50;99.90;;;;;;5070778;28;20041;-71
2024/01/08 05:56:28;;;;;;;8.48;3.33;;;-0.40;99.90;;;;;;5071532;28;20044;-71
2024/01/08 05:58:54;;;;;;;5.43;2.90;;;-0.50;99.90;;;;;;5070471;28;20491;-71
2024/01/08 06:01:21;;;;;;;6.53;3.22;;;-0.40;99.90;;;;;;5071596;28;20044;-71
2024/01/08 06:03:46;;;;;;;5.43;2.88;;;-0.50;99.90;;;;;;5070907;28;20090;-71
2024/01/08 06:06:13;;;;;;;7.18;3.33;;;-0.50;99.90;;;;;;5069769;28;20565;-71
2024/01/08 06:08:40;;;;;;;6.60;3.42;;;-0.50;99.90;;;;;;5070890;28;20078;-72
2024/01/08 06:11:06;;;;;;;5.90;3.42;;;-0.50;99.90;;;;;;5070923;28;20055;-71
2024/01/08 06:13:32;;;;;;;8.88;3.58;;;-0.60;99.90;;;;;;5071322;28;20045;-71
2024/01/08 06:15:58;;;;;;;5.88;2.75;;;-0.70;99.90;;;;;;5071668;28;20047;-71
2024/01/08 06:18:24;;;;;;;5.88;3.15;;;-0.70;99.90;;;;;;5070652;28;20123;-71
2024/01/08 06:20:50;;;;;;;6.53;3.30;;;-0.80;99.90;;;;;;5070761;28;20115;-72
2024/01/08 06:23:16;;;;;;;7.72;3.15;;;-0.90;99.90;;;;;;5070007;28;20079;-72
2024/01/08 06:25:42;;;;;;;5.88;3.15;;;-0.90;99.90;;;;;;5071412;28;20076;-71
2024/01/08 06:28:07;;;;;;;7.55;3.63;;;-0.90;99.90;;;;;;5069403;28;20045;-71
2024/01/08 06:30:33;;;;;;;6.10;2.97;;;-1.00;99.90;;;;;;5073461;28;20396;-71
2024/01/08 06:32:59;;;;;;;6.22;3.00;;;-1.00;99.90;;;;;;5074852;28;20052;-72
2024/01/08 06:35:25;;;;;;;7.22;3.45;;;-1.10;99.90;;;;;;5073266;28;20072;-71
2024/01/08 06:37:50;;;;;;;5.82;3.40;;;-1.20;99.90;;;;;;5074021;28;20047;-71
2024/01/08 06:40:16;;;;;;;6.40;3.50;;;-1.20;99.90;;;;;;5072860;28;20090;-71
2024/01/08 06:42:42;;;;;;;5.97;3.45;;;-1.30;99.90;;;;;;5073043;28;20056;-71
2024/01/08 06:45:08;;;;;;;6.72;2.88;;;-1.40;99.90;;;;;;5073249;28;20049;-71
2024/01/08 06:47:34;;;;;;;5.78;3.50;;;-1.30;99.90;;;;;;5073937;28;20044;-71
2024/01/08 06:49:59;;;;;;;5.70;3.42;;;-1.40;99.90;;;;;;5072034;28;20040;-71
2024/01/08 06:52:25;;;;;;;7.40;3.70;;;-1.40;99.90;;;;;;5073184;28;20060;-71
2024/01/08 06:54:51;;;;;;;6.35;3.45;;;-1.40;99.90;;;;;;5073701;28;20040;-71
2024/01/08 06:57:17;;;;;;;7.93;3.42;;;-1.50;99.90;;;;;;5073871;28;20041;-71
2024/01/08 06:59:43;;;;;;;6.45;3.58;;;-1.50;99.90;;;;;;5073216;28;20063;-70
2024/01/08 07:02:08;;;;;;;8.43;4.18;;;-1.50;99.90;;;;;;5072401;28;20044;-71
2024/01/08 07:04:34;;;;;;;6.60;3.50;;;-1.60;99.90;;;;;;5073177;28;20399;-71
2024/01/08 07:06:59;;;;;;;5.63;3.55;;;-1.60;99.90;;;;;;5072563;28;20546;-71
2024/01/08 07:09:25;;;;;;;7.90;3.35;;;-1.60;99.90;;;;;;5073734;28;20052;-71
2024/01/08 07:11:54;;;;;;;9.13;3.70;;;-1.60;99.90;;;;;;5074368;28;20056;-71
2024/01/08 07:14:20;;;;;;;12.90;6.60;;;-1.70;99.90;;;;;;5072881;28;20052;-71
2024/01/08 07:16:48;;;;;;;11.90;6.20;;;-1.60;99.90;;;;;;5073728;28;20055;-71
2024/01/08 07:19:14;;;;;;;8.35;4.78;;;-1.70;99.90;;;;;;5072555;28;20045;-71
2024/01/08 07:21:39;;;;;;;8.48;4.43;;;-1.70;99.90;;;;;;5073580;28;20049;-71
2024/01/08 07:24:05;;;;;;;10.45;5.28;;;-1.80;99.90;;;;;;5071912;28;20048;-72
2024/01/08 07:26:31;;;;;;;7.68;4.20;;;-1.80;99.90;;;;;;5073053;28;20040;-71
2024/01/08 07:28:59;;;;;;;7.75;4.43;;;-1.80;99.90;;;;;;5073804;28;20216;-71
2024/01/08 07:31:25;;;;;;;8.25;4.72;;;-1.90;99.90;;;;;;5072141;28;20419;-72
2024/01/08 07:33:51;;;;;;;10.57;4.70;;;-1.90;99.90;;;;;;5072323;28;20128;-71
2024/01/08 07:36:16;;;;;;;7.25;3.88;;;-1.90;99.90;;;;;;5073771;28;20040;-72
2024/01/08 07:38:45;;;;;;;9.80;4.32;;;-1.20;99.90;;;;;;5065437;28;20197;-71
2024/01/08 07:41:12;;;;;;;10.35;6.40;;;-1.80;99.90;;;;;;5071942;28;20502;-72
2024/01/08 07:43:37;;;;;;;10.15;5.60;;;-1.80;99.90;;;;;;5071938;28;20148;-72
2024/01/08 07:46:07;;;;;;;7.82;4.65;;;-1.00;99.90;;;;;;5071064;28;20131;-72
2024/01/08 07:48:33;;;;;;;8.52;5.30;;;-1.80;99.90;;;;;;5071411;28;20049;-72
2024/01/08 07:50:59;;;;;;;8.30;3.97;;;-1.80;99.90;;;;;;5070466;28;20392;-72
2024/01/08 07:53:30;;;;;;;7.18;4.20;;;-1.90;99.90;;;;;;5072001;28;20049;-73
2024/01/08 07:56:05;;;;;;;9.05;5.22;;;-1.90;99.90;;;;;;5071439;28;20049;-75
2024/01/08 07:58:31;;;;;;;9.10;4.55;;;-1.90;99.90;;;;;;5070543;28;20054;-72
2024/01/08 08:00:56;;;;;;;7.20;3.63;;;-1.90;99.90;;;;;;5072602;28;20052;-73
2024/01/08 08:03:22;;;;;;;7.88;3.70;;;-1.90;99.90;;;;;;5070641;28;20044;-72
2024/01/08 08:05:50;;;;;;;7.40;3.45;;;-1.90;99.90;;;;;;5070344;28;20045;-72
2024/01/08 08:08:19;;;;;;;6.88;3.15;;;-1.90;99.90;;;;;;5070665;28;20032;-72
2024/01/08 08:10:45;;;;;;;6.75;3.80;;;-1.90;99.90;;;;;;5071425;28;20173;-72
2024/01/08 08:13:10;;;;;;;11.45;3.80;;;-1.80;99.90;;;;;;5071126;28;20041;-71
2024/01/08 08:15:36;;;;;;;9.43;3.42;;;-1.80;99.90;;;;;;5071804;28;20033;-73
2024/01/08 08:18:02;;;;;;;7.28;3.78;;;-1.80;99.90;;;;;;5070761;28;20040;-69
2024/01/08 08:20:27;;;;;;;9.30;4.15;;;-1.80;99.90;;;;;;5070677;28;20552;-71
2024/01/08 08:22:56;;;;;;;9.35;3.55;;;-1.80;99.90;;;;;;5071295;28;20045;-69
2024/01/08 08:25:21;;;;;;;5.63;2.90;;;-1.80;99.90;;;;;;5051645;28;20049;-73
2024/01/08 08:27:47;;;;;;;8.20;3.55;;;0.30;99.90;;;;;;5062289;28;20044;-72
2024/01/08 08:30:16;;;;;;;6.55;3.15;;;-1.40;99.90;;;;;;5071258;28;20070;-71
2024/01/08 08:32:42;;;;;;;7.10;3.10;;;-1.70;99.90;;;;;;5069596;28;20540;-69
2024/01/08 08:35:08;;;;;;;8.02;3.08;;;-1.70;99.90;;;;;;5069805;28;20048;-68
2024/01/08 08:37:36;;;;;;;6.28;3.00;;;-1.60;99.90;;;;;;5071264;28;20051;-70
2024/01/08 08:40:02;;;;;;;5.68;2.60;;;-1.60;99.90;;;;;;5071641;28;20128;-70
2024/01/08 08:42:27;;;;;;;5.07;2.80;;;-1.50;99.90;;;;;;5071661;28;20511;-70
2024/01/08 08:44:53;;;;;;;6.53;2.90;;;-1.50;99.90;;;;;;5070652;28;20048;-70
2024/01/08 08:47:22;;;;;;;6.90;3.33;;;-1.40;99.90;;;;;;5066717;28;20044;-68
2024/01/08 08:49:47;;;;;;;10.30;4.95;;;-1.30;99.90;;;;;;5067679;28;20407;-69
2024/01/08 08:52:13;;;;;;;13.43;4.75;;;-1.30;99.90;;;;;;5067817;28;20052;-72
2024/01/08 08:54:39;;;;;;;5.72;3.13;;;-1.20;99.90;;;;;;5069555;28;20044;-75
2024/01/08 08:57:04;;;;;;;8.52;3.25;;;-0.40;99.90;;;;;;5068798;28;20041;-71
2024/01/08 08:59:37;;;;;;;9.75;3.47;;;-1.00;99.90;;;;;;5071476;28;20048;-71
2024/01/08 09:02:03;;;;;;;6.78;2.80;;;-0.10;99.90;;;;;;5070793;28;20050;-71
2024/01/08 09:04:28;;;;;;;7.10;2.90;;;-0.90;99.90;;;;;;5070265;28;20127;-73
2024/01/08 09:06:54;;;;;;;6.07;2.88;;;-0.80;99.90;;;;;;5070629;28;20083;-73
2024/01/08 09:09:19;;;;;;;5.32;2.97;;;-0.80;99.90;;;;;;5069335;28;20066;-71
2024/01/08 09:11:48;;;;;;;7.43;3.10;;;-0.80;99.90;;;;;;5069920;28;20041;-69
2024/01/08 09:14:20;;;;;;;8.70;3.47;;;-0.70;99.90;;;;;;5068520;28;20523;-73
2024/01/08 09:16:46;;;;;;;7.78;3.10;;;-0.70;99.90;;;;;;5087804;28;20075;-74
2024/01/08 09:19:15;;;;;;;6.25;3.00;;;-0.60;99.90;;;;;;5071269;28;20048;-73
2024/01/08 09:21:45;;;;;;;8.27;2.85;;;-0.60;99.90;;;;;;5068669;28;20127;-75
2024/01/08 09:24:11;;;;;;;11.77;3.53;;;-0.60;99.90;;;;;;5068134;28;20051;-73
2024/01/08 09:26:36;;;;;;;7.03;3.38;;;-0.50;99.90;;;;;;5067913;28;20123;-69
2024/01/08 09:29:02;;;;;;;7.72;3.83;;;-0.50;99.90;;;;;;5071808;28;20043;-73
2024/01/08 09:31:28;;;;;;;6.47;2.90;;;-0.50;99.90;;;;;;5068599;28;20040;-73
2024/01/08 09:33:54;;;;;;;7.38;3.55;;;-0.50;99.90;;;;;;5102963;28;20517;-70
2024/01/08 09:36:20;;;;;;;5.07;2.60;;;-0.40;99.90;;;;;;5068759;28;20090;-71
2024/01/08 09:38:46;;;;;;;6.15;2.78;;;-0.30;99.90;;;;;;5069568;28;20064;-71
2024/01/08 09:41:12;;;;;;;8.65;2.75;;;-0.30;99.90;;;;;;5068624;28;20092;-72
2024/01/08 09:43:39;;;;;;;5.93;2.65;;;-0.20;99.90;;;;;;5068837;28;20052;-71
2024/01/08 09:46:07;;;;;;;6.63;2.90;;;0.40;99.90;;;;;;5069055;28;20113;-72
2024/01/08 09:48:34;;;;;;;7.25;2.60;;;-0.10;99.90;;;;;;5070117;28;20058;-73
2024/01/08 09:51:00;;;;;;;5.43;2.80;;;0.00;99.90;;;;;;5070528;28;20056;-71
2024/01/08 09:53:31;;;;;;;4.22;2.05;;;0.00;99.90;;;;;;5071309;28;20448;-71
2024/01/08 09:55:58;;;;;;;6.47;2.40;;;0.10;99.90;;;;;;5091328;28;20060;-68
2024/01/08 09:58:27;;;;;;;8.35;2.63;;;0.20;99.90;;;;;;5069171;28;20056;-67
2024/01/08 10:00:53;;;;;;;5.38;2.35;;;0.20;99.90;;;;;;5069410;28;20045;-67
2024/01/08 10:03:23;;;;;;;4.88;2.30;;;1.60;99.90;;;;;;5068142;28;20095;-68
2024/01/08 10:05:48;;;;;;;7.15;2.88;;;0.20;99.90;;;;;;5069677;28;20586;-68
2024/01/08 10:08:16;;;;;;;5.53;2.47;;;0.20;99.90;;;;;;5070014;28;20036;-73
2024/01/08 10:10:41;;;;;;;6.65;2.40;;;0.30;99.90;;;;;;5069677;28;20052;-70
2024/01/08 10:13:09;;;;;;;5.22;2.35;;;0.40;99.90;;;;;;5070208;28;20067;-68
2024/01/08 10:15:35;;;;;;;6.43;2.50;;;-0.10;99.90;;;;;;5066928;28;20111;-68
2024/01/08 10:18:02;;;;;;;5.15;2.50;;;0.40;99.90;;;;;;5071874;28;20055;-68
2024/01/08 10:20:30;;;;;;;6.90;2.47;;;0.40;99.90;;;;;;5072610;28;20086;-69
2024/01/08 10:23:08;;;;;;;5.18;2.00;;;0.40;99.90;;;;;;5073928;28;20571;-68
2024/01/08 10:25:35;;;;;;;5.40;2.28;;;0.40;99.90;;;;;;5074313;28;20502;-71
2024/01/08 10:28:02;;;;;;;6.18;2.47;;;0.40;99.90;;;;;;5077263;28;20068;-70
2024/01/08 10:30:28;;;;;;;6.38;2.22;;;0.50;99.90;;;;;;5075556;28;20499;-70
2024/01/08 10:32:58;;;;;;;4.88;2.58;;;0.60;99.90;;;;;;5080994;28;20119;-71
2024/01/08 10:35:25;;;;;;;5.03;2.85;;;0.60;99.90;;;;;;5083726;28;20044;-69
2024/01/08 10:37:52;;;;;;;6.60;2.55;;;0.50;99.90;;;;;;5093520;28;20479;-72
2024/01/08 10:40:19;;;;;;;6.53;3.00;;;0.60;99.90;;;;;;5093917;28;20052;-70
2024/01/08 10:42:44;;;;;;;6.72;2.38;;;0.60;99.90;;;;;;5093863;28;20394;-70
2024/01/08 10:45:10;;;;;;;4.35;2.83;;;0.70;99.90;;;;;;5069939;28;20124;-71
2024/01/08 10:47:49;;;;;;;4.82;2.33;;;0.80;99.90;;;;;;5071421;28;20036;-72
2024/01/08 10:50:38;;;;;;;5.05;2.60;;;0.80;99.90;;;;;;5070143;28;20052;-72
2024/01/08 10:53:12;;;;;;;4.72;2.70;;;0.90;99.90;;;;;;5071813;28;20102;-72
2024/01/08 10:55:41;;;;;;;5.10;2.63;;;0.90;99.90;;;;;;5071052;28;20049;-73
2024/01/08 10:58:16;;;;;;;6.38;3.10;;;0.80;99.90;;;;;;5071755;28;20483;-73
2024/01/08 11:00:41;;;;;;;6.95;2.50;;;0.80;99.90;;;;;;5096032;28;20435;-72
2024/01/08 11:03:07;;;;;;;7.40;2.63;;;0.80;99.90;;;;;;5071356;28;20056;-71
2024/01/08 11:05:37;;;;;;;4.88;2.45;;;0.80;99.90;;;;;;5070539;28;20037;-72
2024/01/08 11:08:04;;;;;;;5.78;2.67;;;0.90;99.90;;;;;;5068367;28;20484;-71
2024/01/08 11:10:30;;;;;;;10.10;4.60;;;1.10;99.90;;;;;;5070985;28;20036;-71
2024/01/08 11:12:59;;;;;;;9.25;4.93;;;1.50;99.90;;;;;;5070226;28;20465;-71
2024/01/08 11:15:28;;;;;;;5.63;2.78;;;1.80;99.90;;;;;;5067745;28;20037;-69
2024/01/08 11:17:57;;;;;;;8.50;3.17;;;1.90;99.90;;;;;;5072260;28;20075;-69
2024/01/08 11:20:40;;;;;;;8.70;3.05;;;1.80;99.90;;;;;;5071512;28;20131;-69
2024/01/08 11:23:40;;;;;;;5.28;2.47;;;1.80;99.90;;;;;;5067810;28;20052;-69
2024/01/08 11:26:10;;;;;;;6.00;2.63;;;1.90;99.90;;;;;;5070605;28;20094;-71
2024/01/08 11:28:40;;;;;;;5.55;2.70;;;1.90;99.90;;;;;;5072706;28;20068;-72
2024/01/08 11:31:40;;;;;;;5.70;2.50;;;2.10;99.90;;;;;;5067977;28;20044;-70
2024/01/08 11:34:43;;;;;;;4.95;2.55;;;2.40;99.90;;;;;;5071969;28;20067;-76
2024/01/08 11:37:38;;;;;;;5.50;2.17;;;2.70;99.90;;;;;;5065945;28;20387;-70
2024/01/08 11:40:06;;;;;;;4.95;2.10;;;2.50;99.90;;;;;;5073085;28;20534;-67
2024/01/08 11:42:35;;;;;;;5.28;2.50;;;2.20;99.90;;;;;;5072831;28;20128;-69
2024/01/08 11:45:04;;;;;;;4.72;2.78;;;2.10;99.90;;;;;;5072038;28;20040;-69
2024/01/08 11:47:30;;;;;;;6.85;2.60;;;2.20;99.90;;;;;;5072963;28;20066;-69
2024/01/08 11:49:56;;;;;;;4.13;2.45;;;2.40;99.90;;;;;;5071858;28;20086;-69
2024/01/08 11:52:24;;;;;;;5.18;2.35;;;2.30;99.90;;;;;;5071906;28;20442;-70
2024/01/08 11:54:52;;;;;;;6.50;2.55;;;2.50;99.90;;;;;;5071463;28;20041;-71
2024/01/08 11:57:19;;;;;;;4.70;2.65;;;3.20;99.90;;;;;;5071052;28;20437;-70
2024/01/08 11:59:46;;;;;;;5.47;2.50;;;5.00;99.90;;;;;;5073379;28;20044;-70
2024/01/08 12:02:18;;;;;;;4.07;2.22;;;5.20;99.90;;;;;;5080793;28;20105;-70
2024/01/08 12:05:04;;;;;;;4.30;2.38;;;6.10;99.90;;;;;;5071971;28;20068;-70
2024/01/08 12:07:31;;;;;;;5.47;2.50;;;6.30;99.90;;;;;;5070994;28;20135;-70
2024/01/08 12:10:02;;;;;;;5.97;2.40;;;6.80;99.50;;;;;;5071683;28;20148;-69
2024/01/08 12:12:29;;;;;;;5.28;2.78;;;6.80;99.30;;;;;;5071210;28;20570;-72
2024/01/08 12:14:54;;;;;;;4.32;2.40;;;6.60;99.40;;;;;;5071064;28;20059;-73
2024/01/08 12:17:22;;;;;;;5.28;2.50;;;6.90;99.50;;;;;;5070113;28;20036;-72
2024/01/08 12:19:52;;;;;;;4.93;2.70;;;7.30;97.50;;;;;;5066460;28;20056;-72
2024/01/08 12:22:19;;;;;;;3.67;2.17;;;6.80;98.90;;;;;;5062470;28;20517;-72
2024/01/08 12:24:52;;;;;;;4.95;2.40;;;6.30;97.50;;;;;;5069958;28;20052;-71
2024/01/08 12:27:19;;;;;;;4.10;2.17;;;5.10;98.10;;;;;;5068554;28;20119;-71
2024/01/08 12:29:47;;;;;;;4.32;2.05;;;4.00;99.90;;;;;;5067234;28;20068;-71
2024/01/08 12:32:16;;;;;;;5.32;3.03;;;3.30;99.90;;;;;;5068003;28;20115;-72
2024/01/08 12:34:43;;;;;;;5.25;2.58;;;2.80;99.90;;;;;;5067751;28;20044;-71
2024/01/08 12:37:11;;;;;;;6.15;3.03;;;2.20;99.90;;;;;;5068832;28;20489;-71
2024/01/08 12:39:38;;;;;;;7.07;2.78;;;2.20;99.90;;;;;;5069378;28;20051;-71
2024/01/08 12:42:25;;;;;;;5.38;2.42;;;2.10;99.90;;;;;;5069655;28;20056;-71
2024/01/08 12:44:50;;;;;;;5.47;2.90;;;1.80;99.90;;;;;;5071968;28;20123;-71
2024/01/08 12:47:19;;;;;;;4.38;2.80;;;1.70;99.90;;;;;;5071292;28;20414;-71
2024/01/08 12:49:45;;;;;;;4.72;2.40;;;1.60;99.90;;;;;;5070764;28;20057;-71